createdAt,value
2023-03-15T00:02:04.646Z,72.29
2023-03-15T00:04:42.000Z,72.21
2023-03-15T00:07:18.455Z,72.21
2023-03-15T00:09:55.153Z,72.04
2023-03-15T00:12:32.135Z,72.09
2023-03-15T00:15:11.042Z,72.02
2023-03-15T00:17:47.464Z,72.04
2023-03-15T00:20:24.346Z,72.04
2023-03-15T00:23:01.118Z,71.80
2023-03-15T00:25:37.606Z,71.86
2023-03-15T00:28:14.101Z,71.84
2023-03-15T00:30:50.603Z,71.67
2023-03-15T00:33:26.991Z,71.69
2023-03-15T00:36:06.560Z,71.86
2023-03-15T00:38:45.243Z,71.86
2023-03-15T00:41:23.826Z,71.91
2023-03-15T00:44:00.133Z,71.92
2023-03-15T00:46:36.635Z,72.04
2023-03-15T00:49:13.064Z,72.18
2023-03-15T00:51:49.451Z,72.36
2023-03-15T00:54:25.696Z,72.49
2023-03-15T00:57:02.480Z,72.74
2023-03-15T00:59:39.185Z,73.08
2023-03-15T01:02:18.010Z,73.55
2023-03-15T01:04:55.063Z,74.00
2023-03-15T01:07:34.343Z,74.28
2023-03-15T01:10:15.195Z,74.68
2023-03-15T01:12:51.729Z,74.95
2023-03-15T01:15:28.318Z,75.13
2023-03-15T01:18:04.749Z,75.22
2023-03-15T01:20:43.870Z,75.17
2023-03-15T01:23:21.422Z,75.05
2023-03-15T01:26:00.619Z,75.10
2023-03-15T01:28:37.940Z,75.03
2023-03-15T01:31:21.887Z,74.94
2023-03-15T01:33:59.740Z,74.78
2023-03-15T01:36:39.162Z,74.63
2023-03-15T01:39:15.542Z,74.63
2023-03-15T01:41:53.874Z,74.34
2023-03-15T01:44:54.920Z,73.94
2023-03-15T01:47:32.906Z,73.91
2023-03-15T01:50:14.236Z,73.80
2023-03-15T01:52:51.169Z,73.62
2023-03-15T01:55:29.150Z,73.24
2023-03-15T01:58:17.116Z,72.72
2023-03-15T02:00:55.643Z,72.58
2023-03-15T02:03:38.954Z,72.26
2023-03-15T02:06:18.498Z,71.73
2023-03-15T02:09:05.867Z,71.75
2023-03-15T02:11:44.750Z,71.50
2023-03-15T02:14:22.696Z,71.34
2023-03-15T02:17:00.110Z,71.40
2023-03-15T02:19:57.221Z,71.22
2023-03-15T02:22:48.646Z,71.21
2023-03-15T02:25:39.747Z,71.33
2023-03-15T02:28:20.162Z,71.08
2023-03-15T02:30:56.864Z,71.11
2023-03-15T02:33:40.183Z,70.90
2023-03-15T02:36:24.809Z,71.06
2023-03-15T02:39:01.988Z,70.89
2023-03-15T02:41:43.820Z,70.96
2023-03-15T02:44:22.848Z,71.01
2023-03-15T02:47:07.282Z,71.11
2023-03-15T02:49:50.797Z,71.25
2023-03-15T02:52:27.810Z,71.38
2023-03-15T02:55:04.585Z,71.47
2023-03-15T02:57:41.142Z,71.71
2023-03-15T03:00:22.428Z,71.81
2023-03-15T03:02:59.346Z,71.80
2023-03-15T03:05:35.721Z,71.86
2023-03-15T03:08:12.673Z,71.72
2023-03-15T03:10:50.050Z,71.75
2023-03-15T03:13:26.726Z,71.84
2023-03-15T03:16:03.679Z,72.01
2023-03-15T03:18:42.284Z,72.07
2023-03-15T03:21:18.907Z,72.16
2023-03-15T03:23:55.772Z,72.29
2023-03-15T03:26:32.889Z,72.33
2023-03-15T03:29:09.728Z,72.37
2023-03-15T03:31:47.394Z,72.43
2023-03-15T03:34:24.257Z,72.46
2023-03-15T03:37:00.762Z,72.44
2023-03-15T03:39:52.453Z,72.51
2023-03-15T03:42:29.743Z,72.59
2023-03-15T03:45:07.873Z,72.60
2023-03-15T03:47:48.236Z,72.49
2023-03-15T03:50:24.864Z,72.45
2023-03-15T03:53:01.415Z,72.59
2023-03-15T03:55:42.875Z,72.69
2023-03-15T03:58:19.596Z,72.81
2023-03-15T04:01:00.520Z,72.90
2023-03-15T04:03:37.598Z,72.81
2023-03-15T04:06:23.772Z,72.88
2023-03-15T04:09:00.278Z,72.97
2023-03-15T04:11:48.694Z,73.06
2023-03-15T04:14:26.280Z,72.99
2023-03-15T04:17:04.080Z,72.99
2023-03-15T04:19:41.246Z,72.88
2023-03-15T04:22:19.081Z,72.53
2023-03-15T04:25:14.706Z,72.66
2023-03-15T04:27:58.988Z,72.56
2023-03-15T04:30:59.099Z,72.22
2023-03-15T04:33:55.443Z,71.89
2023-03-15T04:37:32.262Z,71.87
2023-03-15T04:40:26.642Z,71.83
2023-03-15T04:43:22.861Z,71.83
2023-03-15T04:46:18.522Z,71.76
2023-03-15T04:49:10.071Z,71.73
2023-03-15T04:52:05.532Z,71.78
2023-03-15T04:54:58.518Z,71.73
2023-03-15T04:57:56.802Z,71.71
2023-03-15T05:00:48.514Z,71.75
2023-03-15T05:03:43.537Z,71.54
2023-03-15T05:06:26.236Z,71.47
2023-03-15T05:09:05.658Z,71.49
2023-03-15T05:12:02.502Z,71.28
2023-03-15T05:15:26.117Z,71.35
2023-03-15T05:18:52.245Z,71.41
2023-03-15T05:21:52.018Z,71.28
2023-03-15T05:25:11.482Z,71.08
2023-03-15T05:28:29.827Z,70.64
2023-03-15T05:31:58.235Z,70.62
2023-03-15T05:35:02.461Z,70.52
2023-03-15T05:37:51.112Z,70.37
2023-03-15T05:41:12.329Z,69.95
2023-03-15T05:44:09.675Z,69.63
2023-03-15T05:47:26.845Z,69.65
2023-03-15T05:50:49.981Z,69.61
2023-03-15T05:54:10.282Z,69.43
2023-03-15T05:56:58.869Z,69.13
2023-03-15T06:00:28.433Z,68.92
2023-03-15T06:03:06.043Z,68.86
2023-03-15T06:05:56.191Z,68.91
2023-03-15T06:08:40.239Z,68.91
2023-03-15T06:11:16.651Z,68.78
2023-03-15T06:13:53.247Z,68.40
2023-03-15T06:17:14.131Z,68.57
2023-03-15T06:19:52.827Z,68.14
2023-03-15T06:22:30.108Z,67.74
2023-03-15T06:25:11.748Z,67.94
2023-03-15T06:27:49.111Z,67.79
2023-03-15T06:30:27.814Z,67.20
2023-03-15T06:33:06.521Z,67.34
2023-03-15T06:35:43.204Z,67.47
2023-03-15T06:38:19.709Z,67.03
2023-03-15T06:40:58.589Z,67.14
2023-03-15T06:43:35.181Z,67.30
2023-03-15T06:46:11.790Z,67.07
2023-03-15T06:48:48.204Z,66.97
2023-03-15T06:51:25.177Z,66.96
2023-03-15T06:54:01.968Z,67.11
2023-03-15T06:56:38.733Z,66.98
2023-03-15T06:59:15.057Z,66.48
2023-03-15T07:01:51.414Z,65.72
2023-03-15T07:04:30.227Z,65.53
2023-03-15T07:07:07.299Z,65.51
2023-03-15T07:09:44.191Z,65.67
2023-03-15T07:12:21.142Z,65.71
2023-03-15T07:14:57.492Z,65.67
2023-03-15T07:17:33.754Z,65.60
2023-03-15T07:20:13.896Z,65.32
2023-03-15T07:22:50.452Z,65.36
2023-03-15T07:25:26.802Z,65.18
2023-03-15T07:28:03.315Z,65.43
2023-03-15T07:30:39.727Z,65.53
2023-03-15T07:33:16.225Z,65.56
2023-03-15T07:35:53.608Z,65.67
2023-03-15T07:38:31.486Z,65.65
2023-03-15T07:41:10.382Z,65.71
2023-03-15T07:43:47.649Z,65.03
2023-03-15T07:46:26.917Z,64.98
2023-03-15T07:49:03.320Z,65.40
2023-03-15T07:51:40.022Z,65.05
2023-03-15T07:54:16.513Z,64.89
2023-03-15T07:56:52.963Z,64.66
2023-03-15T07:59:30.645Z,64.03
2023-03-15T08:02:07.583Z,64.01
2023-03-15T08:04:44.926Z,63.56
2023-03-15T08:07:21.568Z,63.08
2023-03-15T08:09:59.264Z,62.67
2023-03-15T08:12:35.569Z,62.11
2023-03-15T08:15:15.564Z,62.08
2023-03-15T08:17:53.199Z,61.84
2023-03-15T08:20:30.196Z,61.50
2023-03-15T08:23:06.823Z,61.60
2023-03-15T08:25:43.726Z,60.84
2023-03-15T08:28:20.913Z,61.19
2023-03-15T08:30:57.494Z,61.09
2023-03-15T08:33:33.747Z,61.73
2023-03-15T08:36:11.335Z,60.71
2023-03-15T08:38:47.703Z,60.25
2023-03-15T08:41:24.076Z,59.98
2023-03-15T08:44:00.527Z,60.19
2023-03-15T08:46:37.026Z,59.85
2023-03-15T08:49:13.258Z,59.64
2023-03-15T08:51:49.537Z,59.51
2023-03-15T08:54:27.572Z,59.68
2023-03-15T08:57:04.672Z,59.49
2023-03-15T08:59:41.377Z,59.18
2023-03-15T09:02:18.738Z,57.98
2023-03-15T09:04:55.383Z,56.75
2023-03-15T09:07:32.891Z,56.22
2023-03-15T09:10:13.327Z,56.65
2023-03-15T09:12:54.090Z,56.91
2023-03-15T09:15:30.989Z,56.10
2023-03-15T09:18:08.439Z,56.74
2023-03-15T09:20:45.138Z,56.07
2023-03-15T09:23:21.688Z,55.39
2023-03-15T09:25:58.356Z,55.52
2023-03-15T09:28:35.038Z,55.26
2023-03-15T09:31:12.553Z,55.04
2023-03-15T09:33:49.847Z,55.42
2023-03-15T09:36:26.700Z,54.84
2023-03-15T09:39:03.706Z,54.78
2023-03-15T09:41:52.238Z,54.96
2023-03-15T09:44:52.620Z,54.84
2023-03-15T09:47:48.332Z,53.95
2023-03-15T09:50:32.907Z,53.87
2023-03-15T09:53:20.227Z,53.83
2023-03-15T09:56:26.967Z,53.01
2023-03-15T09:59:06.732Z,53.76
2023-03-15T10:01:45.603Z,54.02
2023-03-15T10:04:31.619Z,53.49
2023-03-15T10:07:13.367Z,52.57
2023-03-15T10:09:49.077Z,53.29
2023-03-15T10:12:40.856Z,53.79
2023-03-15T10:15:45.823Z,54.64
2023-03-15T10:18:51.247Z,53.93
2023-03-15T10:21:49.052Z,53.63
2023-03-15T10:24:37.057Z,53.36
2023-03-15T10:27:27.389Z,52.70
2023-03-15T10:30:14.581Z,52.98
2023-03-15T10:33:00.483Z,53.23
2023-03-15T10:35:37.925Z,53.04
2023-03-15T10:38:23.890Z,52.02
2023-03-15T10:41:02.733Z,51.44
2023-03-15T10:43:41.655Z,51.38
2023-03-15T10:46:27.008Z,51.52
2023-03-15T10:49:13.278Z,51.78
2023-03-15T10:51:51.345Z,52.86
2023-03-15T10:54:29.809Z,52.63
2023-03-15T10:57:14.799Z,52.51
2023-03-15T11:00:09.529Z,52.36
2023-03-15T11:03:02.626Z,51.50
2023-03-15T11:05:50.704Z,50.58
2023-03-15T11:08:40.230Z,51.20
2023-03-15T11:11:16.705Z,50.61
2023-03-15T11:14:07.857Z,50.25
2023-03-15T11:16:47.783Z,49.42
2023-03-15T11:19:28.114Z,50.18
2023-03-15T11:22:06.186Z,49.49
2023-03-15T11:24:43.151Z,48.83
2023-03-15T11:27:26.019Z,49.39
2023-03-15T11:30:05.608Z,49.17
2023-03-15T11:32:49.435Z,48.87
2023-03-15T11:35:33.753Z,49.75
2023-03-15T11:38:23.277Z,49.74
2023-03-15T11:41:03.918Z,50.35
2023-03-15T11:44:01.267Z,49.64
2023-03-15T11:46:48.785Z,49.36
2023-03-15T11:49:36.745Z,49.87
2023-03-15T11:52:16.721Z,48.71
2023-03-15T11:54:55.749Z,49.06
2023-03-15T11:57:51.184Z,50.40
2023-03-15T12:01:02.213Z,48.84
2023-03-15T12:03:46.598Z,48.60
2023-03-15T12:06:43.208Z,48.69
2023-03-15T12:09:56.491Z,49.17
2023-03-15T12:12:48.639Z,49.45
2023-03-15T12:15:53.423Z,49.77
2023-03-15T12:18:47.745Z,49.88
2023-03-15T12:21:35.348Z,49.22
2023-03-15T12:24:25.383Z,48.61
2023-03-15T12:27:16.487Z,47.79
2023-03-15T12:30:02.915Z,47.54
2023-03-15T12:32:51.199Z,47.29
2023-03-15T12:35:34.283Z,47.41
2023-03-15T12:38:20.824Z,47.96
2023-03-15T12:41:00.202Z,48.26
2023-03-15T12:43:46.717Z,47.44
2023-03-15T12:47:04.586Z,46.90
2023-03-15T12:49:49.193Z,47.66
2023-03-15T12:52:53.707Z,46.32
2023-03-15T12:55:35.775Z,47.29
2023-03-15T12:58:14.161Z,46.82
2023-03-15T13:00:55.577Z,47.70
2023-03-15T13:03:35.435Z,47.50
2023-03-15T13:06:39.634Z,47.57
2023-03-15T13:09:46.700Z,47.75
2023-03-15T13:12:30.518Z,46.93
2023-03-15T13:15:18.688Z,46.80
2023-03-15T13:18:04.608Z,47.10
2023-03-15T13:21:01.215Z,47.40
2023-03-15T13:23:42.742Z,47.35
2023-03-15T13:26:55.849Z,47.58
2023-03-15T13:29:36.495Z,47.37
2023-03-15T13:32:23.073Z,47.29
2023-03-15T13:35:02.339Z,47.26
2023-03-15T13:37:45.092Z,47.47
2023-03-15T13:40:22.172Z,47.28
2023-03-15T13:43:04.601Z,47.62
2023-03-15T13:45:46.679Z,47.85
2023-03-15T13:48:24.379Z,48.17
2023-03-15T13:51:07.996Z,47.67
2023-03-15T13:53:49.849Z,47.92
2023-03-15T13:56:49.390Z,48.52
2023-03-15T13:59:35.785Z,47.62
2023-03-15T14:02:19.300Z,46.36
2023-03-15T14:05:05.337Z,46.80
2023-03-15T14:07:45.679Z,47.13
2023-03-15T14:10:38.846Z,46.78
2023-03-15T14:13:32.211Z,47.60
2023-03-15T14:16:18.075Z,47.72
2023-03-15T14:18:55.622Z,47.59
2023-03-15T14:21:38.574Z,48.19
2023-03-15T14:24:26.846Z,48.65
2023-03-15T14:27:10.485Z,47.95
2023-03-15T14:29:55.593Z,47.37
2023-03-15T14:32:37.664Z,47.92
2023-03-15T14:35:26.276Z,47.54
2023-03-15T14:38:17.735Z,47.81
2023-03-15T14:40:55.893Z,47.73
2023-03-15T14:43:32.216Z,47.38
2023-03-15T14:46:11.766Z,47.80
2023-03-15T14:48:48.545Z,47.57
2023-03-15T14:51:27.000Z,47.92
2023-03-15T14:54:04.287Z,48.32
2023-03-15T14:56:42.669Z,48.43
2023-03-15T14:59:20.782Z,48.76
2023-03-15T15:02:01.200Z,48.58
2023-03-15T15:04:39.706Z,48.66
2023-03-15T15:07:20.655Z,48.84
2023-03-15T15:09:57.451Z,48.77
2023-03-15T15:12:33.816Z,48.67
2023-03-15T15:15:21.656Z,48.71
2023-03-15T15:17:58.633Z,49.16
2023-03-15T15:20:35.090Z,49.65
2023-03-15T15:23:16.840Z,49.28
2023-03-15T15:25:55.319Z,49.56
2023-03-15T15:28:37.209Z,49.97
2023-03-15T15:31:19.816Z,50.32
2023-03-15T15:33:57.654Z,50.67
2023-03-15T15:36:39.728Z,50.96
2023-03-15T15:39:27.788Z,50.92
2023-03-15T15:42:04.003Z,51.52
2023-03-15T15:44:40.455Z,51.89
2023-03-15T15:47:17.350Z,51.31
2023-03-15T15:49:54.335Z,51.77
2023-03-15T15:52:31.300Z,51.52
2023-03-15T15:55:13.957Z,51.75
2023-03-15T15:57:53.982Z,51.68
2023-03-15T16:00:32.550Z,51.81
2023-03-15T16:03:16.788Z,52.08
2023-03-15T16:05:53.275Z,52.41
2023-03-15T16:08:31.513Z,52.88
2023-03-15T16:11:08.875Z,52.97
2023-03-15T16:13:46.698Z,52.99
2023-03-15T16:16:24.355Z,53.00
2023-03-15T16:19:00.943Z,53.40
2023-03-15T16:21:43.368Z,53.57
2023-03-15T16:24:24.370Z,53.60
2023-03-15T16:27:06.058Z,54.00
2023-03-15T16:29:47.570Z,54.50
2023-03-15T16:32:43.082Z,54.26
2023-03-15T16:35:20.992Z,54.48
2023-03-15T16:38:01.888Z,54.85
2023-03-15T16:40:43.105Z,54.80
2023-03-15T16:43:20.166Z,55.01
2023-03-15T16:45:56.568Z,55.23
2023-03-15T16:48:33.180Z,55.52
2023-03-15T16:51:14.553Z,55.70
2023-03-15T16:53:52.691Z,55.89
2023-03-15T16:56:36.949Z,56.15
2023-03-15T16:59:17.020Z,56.26
2023-03-15T17:01:53.749Z,56.63
2023-03-15T17:04:30.285Z,56.68
2023-03-15T17:07:07.627Z,56.75
2023-03-15T17:09:44.574Z,56.93
2023-03-15T17:12:28.001Z,57.13
2023-03-15T17:15:06.226Z,57.45
2023-03-15T17:17:44.381Z,57.71
2023-03-15T17:20:27.304Z,57.80
2023-03-15T17:23:07.033Z,58.02
2023-03-15T17:25:44.008Z,58.25
2023-03-15T17:28:21.497Z,58.27
2023-03-15T17:31:19.977Z,58.43
2023-03-15T17:33:55.237Z,58.72
2023-03-15T17:36:37.761Z,58.95
2023-03-15T17:39:18.301Z,59.08
2023-03-15T17:41:55.297Z,59.32
2023-03-15T17:44:31.692Z,59.72
2023-03-15T17:47:10.901Z,60.18
2023-03-15T17:49:48.832Z,60.33
2023-03-15T17:52:25.587Z,60.72
2023-03-15T17:55:01.995Z,61.32
2023-03-15T17:57:42.941Z,61.35
2023-03-15T18:00:28.865Z,61.76
2023-03-15T18:03:06.310Z,62.24
2023-03-15T18:05:43.665Z,62.34
2023-03-15T18:08:25.028Z,62.68
2023-03-15T18:11:02.113Z,62.90
2023-03-15T18:13:39.207Z,63.12
2023-03-15T18:16:17.423Z,63.32
2023-03-15T18:18:54.995Z,63.61
2023-03-15T18:21:33.163Z,63.89
2023-03-15T18:24:15.363Z,64.15
2023-03-15T18:26:52.938Z,64.49
2023-03-15T18:29:29.665Z,64.71
2023-03-15T18:32:07.257Z,65.22
2023-03-15T18:34:44.364Z,65.35
2023-03-15T18:37:21.484Z,65.43
2023-03-15T18:39:58.429Z,65.49
2023-03-15T18:42:34.894Z,65.37
2023-03-15T18:45:21.348Z,65.46
2023-03-15T18:48:00.029Z,65.72
2023-03-15T18:50:37.490Z,66.02
2023-03-15T18:53:14.879Z,66.31
2023-03-15T18:55:52.299Z,66.40
2023-03-15T18:58:31.874Z,66.54
2023-03-15T19:01:08.765Z,66.60
2023-03-15T19:03:45.872Z,66.54
2023-03-15T19:06:23.831Z,66.54
2023-03-15T19:09:01.137Z,66.35
2023-03-15T19:11:41.927Z,66.37
2023-03-15T19:14:18.346Z,66.12
2023-03-15T19:16:55.232Z,66.21
2023-03-15T19:19:31.703Z,66.15
2023-03-15T19:22:08.232Z,65.98
2023-03-15T19:24:44.887Z,66.05
2023-03-15T19:27:21.350Z,66.19
2023-03-15T19:29:58.228Z,66.27
2023-03-15T19:32:37.619Z,66.50
2023-03-15T19:35:15.429Z,66.66
2023-03-15T19:37:52.852Z,66.68
2023-03-15T19:40:29.810Z,66.75
2023-03-15T19:43:06.486Z,66.69
2023-03-15T19:45:43.192Z,66.54
2023-03-15T19:48:21.328Z,66.41
2023-03-15T19:50:58.596Z,66.31
2023-03-15T19:53:37.209Z,66.06
2023-03-15T19:56:17.282Z,65.88
2023-03-15T19:58:56.468Z,65.88
2023-03-15T20:01:33.836Z,65.89
2023-03-15T20:04:11.179Z,65.87
2023-03-15T20:06:48.034Z,65.80
2023-03-15T20:09:24.981Z,65.78
2023-03-15T20:12:01.854Z,65.81
2023-03-15T20:14:41.053Z,65.81
2023-03-15T20:17:20.565Z,66.05
2023-03-15T20:19:58.258Z,66.31
2023-03-15T20:22:35.303Z,66.36
2023-03-15T20:25:14.471Z,66.56
2023-03-15T20:27:51.853Z,66.67
2023-03-15T20:30:29.204Z,66.83
2023-03-15T20:33:06.076Z,66.90
2023-03-15T20:35:43.106Z,67.04
2023-03-15T20:38:22.955Z,67.15
2023-03-15T20:41:01.836Z,67.23
2023-03-15T20:43:38.842Z,67.26
2023-03-15T20:46:17.032Z,67.20
2023-03-15T20:48:54.250Z,67.27
2023-03-15T20:51:30.968Z,67.36
2023-03-15T20:54:07.483Z,67.48
2023-03-15T20:56:45.598Z,67.69
2023-03-15T20:59:22.739Z,67.84
2023-03-15T21:02:01.005Z,67.85
2023-03-15T21:04:37.986Z,67.81
2023-03-15T21:07:14.751Z,67.80
2023-03-15T21:09:51.136Z,67.80
2023-03-15T21:12:27.647Z,67.81
2023-03-15T21:15:04.688Z,67.88
2023-03-15T21:17:41.316Z,67.98
2023-03-15T21:20:18.612Z,68.03
2023-03-15T21:22:54.980Z,68.19
2023-03-15T21:25:32.396Z,68.14
2023-03-15T21:28:09.122Z,68.10
2023-03-15T21:30:46.241Z,68.05
2023-03-15T21:33:23.307Z,68.10
2023-03-15T21:36:00.584Z,68.17
2023-03-15T21:38:38.906Z,68.19
2023-03-15T21:41:15.667Z,68.18
2023-03-15T21:43:52.034Z,68.26
2023-03-15T21:46:28.333Z,68.37
2023-03-15T21:49:05.494Z,68.37
2023-03-15T21:51:46.001Z,68.45
2023-03-15T21:54:22.517Z,68.60
2023-03-15T21:56:58.984Z,68.65
2023-03-15T21:59:35.761Z,68.77
2023-03-15T22:02:14.346Z,68.79
2023-03-15T22:04:52.083Z,68.71
2023-03-15T22:07:28.549Z,68.70
2023-03-15T22:10:05.859Z,68.74
2023-03-15T22:12:43.451Z,68.80
2023-03-15T22:15:20.111Z,68.95
2023-03-15T22:17:56.464Z,69.08
2023-03-15T22:20:33.545Z,69.01
2023-03-15T22:23:11.266Z,68.99
2023-03-15T22:25:47.730Z,69.06
2023-03-15T22:28:25.364Z,69.13
2023-03-15T22:31:01.924Z,69.27
2023-03-15T22:33:38.766Z,69.40
2023-03-15T22:36:17.349Z,69.61
2023-03-15T22:38:54.260Z,69.67
2023-03-15T22:41:30.827Z,69.87
2023-03-15T22:44:07.465Z,69.92
2023-03-15T22:46:44.114Z,69.95
2023-03-15T22:49:26.440Z,69.90
2023-03-15T22:52:02.695Z,69.88
2023-03-15T22:54:39.007Z,69.85
2023-03-15T22:57:15.549Z,69.98
2023-03-15T22:59:52.248Z,70.32
2023-03-15T23:02:29.728Z,70.40
2023-03-15T23:05:06.863Z,70.56
2023-03-15T23:07:44.007Z,70.74
2023-03-15T23:10:21.137Z,70.71
2023-03-15T23:12:57.406Z,70.66
2023-03-15T23:15:34.230Z,70.53
2023-03-15T23:18:13.898Z,70.45
2023-03-15T23:20:50.341Z,70.42
2023-03-15T23:23:27.750Z,70.40
2023-03-15T23:26:04.335Z,70.39
2023-03-15T23:28:40.871Z,70.40
2023-03-15T23:31:17.197Z,70.45
2023-03-15T23:33:53.861Z,70.54
2023-03-15T23:36:30.173Z,70.65
2023-03-15T23:39:06.951Z,70.70
2023-03-15T23:41:45.672Z,70.82
2023-03-15T23:44:22.689Z,70.92
2023-03-15T23:46:59.022Z,70.96
2023-03-15T23:49:38.527Z,71.02
2023-03-15T23:52:15.844Z,71.07
2023-03-15T23:54:53.971Z,71.15
2023-03-15T23:57:30.832Z,71.12
